^^
TXWeather Station Historical Data
Daily Summary for April 06, 2022 Units:  English    Metric   Both
Daily Weekly Monthly Yearly Custom
  High: Low: Average:
Temperature: 81.0 °F 65.0 °F 74.5 °F
Dew Point: 71.0 °F 42.0 °F 60.1 °F
Humidity: 88% 36% 64%
Wind Speed: 27mph 4mph 12.6mph
Wind Gust: 28mph - -
Wind- - West
Pressure: 30.1 in 29.6 in -
Precipitation: 0.000 in    
Historical Graphs
 
 
Tabular Data for April 06, 2022
Time Temperature Dew Point Pressure Wind Wind Speed Wind Gust Humidity Rainfall Rate (Hourly) solar
00:04 74.0 °F 69.0 °F 29.6 in SSE 9 mph 9 mph 84% 0.000 in 0.00 W/m2
00:09 74.0 °F 69.0 °F 29.6 in SSE 10 mph 12 mph 85% 0.000 in 0.00 W/m2
00:14 74.0 °F 69.0 °F 29.6 in SSE 12 mph 12 mph 85% 0.000 in 0.00 W/m2
00:19 74.0 °F 69.0 °F 29.6 in SSE 10 mph 12 mph 85% 0.000 in 0.00 W/m2
00:24 74.0 °F 69.0 °F 29.6 in SSE 7 mph 7 mph 85% 0.000 in 0.00 W/m2
00:29 74.0 °F 69.0 °F 29.6 in SSE 9 mph 9 mph 85% 0.000 in 0.00 W/m2
00:34 74.0 °F 69.0 °F 29.6 in SSE 10 mph 10 mph 85% 0.000 in 0.00 W/m2
00:39 73.0 °F 69.0 °F 29.6 in SSE 10 mph 11 mph 85% 0.000 in 0.00 W/m2
00:44 73.0 °F 68.0 °F 29.6 in SSE 11 mph 11 mph 85% 0.000 in 0.00 W/m2
00:49 73.0 °F 68.0 °F 29.6 in SSE 10 mph 11 mph 85% 0.000 in 0.00 W/m2
00:54 73.0 °F 68.0 °F 29.6 in SSE 6 mph 7 mph 85% 0.000 in 0.00 W/m2
00:59 73.0 °F 69.0 °F 29.6 in SSE 9 mph 10 mph 86% 0.000 in 0.00 W/m2
01:04 73.0 °F 69.0 °F 29.6 in SSE 9 mph 10 mph 86% 0.000 in 0.00 W/m2
01:09 73.0 °F 69.0 °F 29.6 in South 10 mph 11 mph 86% 0.000 in 0.00 W/m2
01:14 73.0 °F 69.0 °F 29.6 in South 13 mph 17 mph 86% 0.000 in 0.00 W/m2
01:19 73.0 °F 69.0 °F 29.6 in SSE 11 mph 17 mph 86% 0.000 in 0.00 W/m2
01:24 73.0 °F 69.0 °F 29.6 in SE 8 mph 12 mph 86% 0.000 in 0.00 W/m2
01:29 73.0 °F 69.0 °F 29.6 in SSE 5 mph 9 mph 86% 0.000 in 0.00 W/m2
01:34 73.0 °F 69.0 °F 29.6 in South 5 mph 6 mph 86% 0.000 in 0.00 W/m2
01:39 73.0 °F 69.0 °F 29.6 in SSE 8 mph 8 mph 86% 0.000 in 0.00 W/m2
01:44 73.0 °F 69.0 °F 29.6 in South 8 mph 12 mph 86% 0.000 in 0.00 W/m2
01:49 73.0 °F 69.0 °F 29.6 in South 11 mph 11 mph 86% 0.000 in 0.00 W/m2
01:54 73.0 °F 69.0 °F 29.6 in South 6 mph 6 mph 86% 0.000 in 0.00 W/m2
01:59 73.0 °F 69.0 °F 29.6 in SSE 9 mph 9 mph 86% 0.000 in 0.00 W/m2
02:04 73.0 °F 69.0 °F 29.6 in SSE 14 mph 14 mph 86% 0.000 in 0.00 W/m2
02:09 73.0 °F 69.0 °F 29.6 in SSE 14 mph 14 mph 86% 0.000 in 0.00 W/m2
02:14 73.0 °F 69.0 °F 29.6 in SSE 9 mph 14 mph 86% 0.000 in 0.00 W/m2
02:19 73.0 °F 69.0 °F 29.6 in SSE 10 mph 10 mph 86% 0.000 in 0.00 W/m2
02:24 73.0 °F 69.0 °F 29.6 in SSE 9 mph 10 mph 86% 0.000 in 0.00 W/m2
02:29 73.0 °F 69.0 °F 29.6 in SSE 7 mph 10 mph 86% 0.000 in 0.00 W/m2
02:34 73.0 °F 69.0 °F 29.6 in SSE 7 mph 8 mph 86% 0.000 in 0.00 W/m2
02:39 73.0 °F 69.0 °F 29.6 in SSE 6 mph 7 mph 86% 0.000 in 0.00 W/m2
02:44 73.0 °F 69.0 °F 29.6 in SSE 7 mph 7 mph 86% 0.000 in 0.00 W/m2
02:49 73.0 °F 69.0 °F 29.6 in SSE 8 mph 9 mph 86% 0.000 in 0.00 W/m2
02:54 73.0 °F 69.0 °F 29.6 in SSE 8 mph 9 mph 86% 0.000 in 0.00 W/m2
02:59 73.0 °F 69.0 °F 29.6 in SSE 8 mph 9 mph 86% 0.000 in 0.00 W/m2
03:04 73.0 °F 68.0 °F 29.6 in SSE 12 mph 12 mph 86% 0.000 in 0.00 W/m2
03:09 73.0 °F 69.0 °F 29.6 in SSE 10 mph 12 mph 87% 0.000 in 0.00 W/m2
03:14 73.0 °F 69.0 °F 29.6 in SSE 11 mph 12 mph 87% 0.000 in 0.00 W/m2
03:19 73.0 °F 69.0 °F 29.6 in SSE 12 mph 12 mph 87% 0.000 in 0.00 W/m2
03:24 73.0 °F 69.0 °F 29.6 in South 11 mph 12 mph 87% 0.000 in 0.00 W/m2
03:29 73.0 °F 69.0 °F 29.6 in SSE 12 mph 12 mph 87% 0.000 in 0.00 W/m2
03:34 73.0 °F 69.0 °F 29.6 in South 8 mph 12 mph 87% 0.000 in 0.00 W/m2
03:39 73.0 °F 69.0 °F 29.6 in South 9 mph 9 mph 87% 0.000 in 0.00 W/m2
03:44 73.0 °F 69.0 °F 29.6 in South 11 mph 12 mph 87% 0.000 in 0.00 W/m2
03:49 73.0 °F 69.0 °F 29.6 in SSE 10 mph 12 mph 87% 0.000 in 0.00 W/m2
03:54 73.0 °F 69.0 °F 29.6 in South 14 mph 14 mph 87% 0.000 in 0.00 W/m2
03:59 73.0 °F 69.0 °F 29.6 in South 9 mph 11 mph 87% 0.000 in 0.00 W/m2
04:04 73.0 °F 69.0 °F 29.6 in South 11 mph 11 mph 88% 0.000 in 0.00 W/m2
04:09 73.0 °F 69.0 °F 29.6 in South 16 mph 16 mph 88% 0.000 in 0.00 W/m2
04:14 73.0 °F 69.0 °F 29.6 in SSE 12 mph 14 mph 88% 0.000 in 0.00 W/m2
04:19 73.0 °F 69.0 °F 29.6 in South 12 mph 16 mph 88% 0.000 in 0.00 W/m2
04:24 73.0 °F 69.0 °F 29.6 in South 11 mph 15 mph 87% 0.000 in 0.00 W/m2
04:29 73.0 °F 69.0 °F 29.6 in SSE 12 mph 14 mph 87% 0.000 in 0.00 W/m2
04:34 73.0 °F 69.0 °F 29.6 in SSE 9 mph 10 mph 87% 0.000 in 0.00 W/m2
04:39 73.0 °F 69.0 °F 29.6 in South 12 mph 12 mph 87% 0.000 in 0.00 W/m2
04:44 73.0 °F 69.0 °F 29.6 in South 7 mph 10 mph 87% 0.000 in 0.00 W/m2
04:49 73.0 °F 69.0 °F 29.6 in SSW 10 mph 10 mph 87% 0.000 in 0.00 W/m2
04:54 73.0 °F 69.0 °F 29.6 in South 22 mph 22 mph 87% 0.000 in 0.00 W/m2
04:59 73.0 °F 69.0 °F 29.6 in South 15 mph 22 mph 87% 0.000 in 0.00 W/m2
05:04 73.0 °F 69.0 °F 29.6 in South 12 mph 13 mph 87% 0.000 in 0.00 W/m2
05:09 73.0 °F 68.0 °F 29.6 in South 11 mph 15 mph 86% 0.000 in 0.00 W/m2
05:14 73.0 °F 68.0 °F 29.6 in South 9 mph 12 mph 86% 0.000 in 0.00 W/m2
05:19 73.0 °F 68.0 °F 29.6 in South 13 mph 14 mph 86% 0.000 in 0.00 W/m2
05:24 73.0 °F 68.0 °F 29.6 in South 16 mph 16 mph 86% 0.000 in 0.00 W/m2
05:29 73.0 °F 68.0 °F 29.6 in South 10 mph 12 mph 86% 0.000 in 0.00 W/m2
05:34 73.0 °F 68.0 °F 29.6 in South 9 mph 10 mph 86% 0.000 in 0.00 W/m2
05:39 73.0 °F 68.0 °F 29.6 in South 11 mph 13 mph 86% 0.000 in 0.00 W/m2
05:44 73.0 °F 68.0 °F 29.6 in South 11 mph 11 mph 86% 0.000 in 0.00 W/m2
05:49 73.0 °F 68.0 °F 29.7 in South 8 mph 10 mph 86% 0.000 in 0.00 W/m2
05:54 73.0 °F 68.0 °F 29.7 in South 10 mph 12 mph 86% 0.000 in 0.00 W/m2
05:59 73.0 °F 68.0 °F 29.7 in South 12 mph 12 mph 86% 0.000 in 0.00 W/m2
06:04 73.0 °F 68.0 °F 29.7 in South 14 mph 14 mph 86% 0.000 in 0.00 W/m2
06:09 73.0 °F 68.0 °F 29.7 in South 9 mph 10 mph 86% 0.000 in 0.00 W/m2
06:14 73.0 °F 68.0 °F 29.7 in South 11 mph 16 mph 86% 0.000 in 0.00 W/m2
06:19 73.0 °F 68.0 °F 29.7 in South 7 mph 9 mph 86% 0.000 in 0.00 W/m2
06:24 73.0 °F 69.0 °F 29.7 in South 10 mph 11 mph 86% 0.000 in 0.00 W/m2
06:29 73.0 °F 69.0 °F 29.7 in South 9 mph 10 mph 86% 0.000 in 0.00 W/m2
06:34 73.0 °F 69.0 °F 29.7 in South 10 mph 11 mph 86% 0.000 in 0.00 W/m2
06:39 73.0 °F 69.0 °F 29.7 in South 10 mph 11 mph 86% 0.000 in 0.00 W/m2
06:44 73.0 °F 69.0 °F 29.7 in South 10 mph 12 mph 86% 0.000 in 0.00 W/m2
06:49 73.0 °F 69.0 °F 29.7 in South 10 mph 11 mph 86% 0.000 in 0.00 W/m2
06:54 73.0 °F 69.0 °F 29.7 in South 9 mph 11 mph 86% 0.000 in 0.00 W/m2
06:59 73.0 °F 69.0 °F 29.7 in South 10 mph 10 mph 86% 0.000 in 0.00 W/m2
07:04 73.0 °F 69.0 °F 29.7 in South 9 mph 10 mph 86% 0.000 in 0.00 W/m2
07:09 73.0 °F 69.0 °F 29.7 in South 7 mph 7 mph 86% 0.000 in 0.00 W/m2
07:14 73.0 °F 69.0 °F 29.7 in South 9 mph 10 mph 86% 0.000 in 0.00 W/m2
07:19 73.0 °F 69.0 °F 29.7 in South 10 mph 10 mph 86% 0.000 in 0.00 W/m2
07:24 73.0 °F 69.0 °F 29.7 in SSW 7 mph 7 mph 86% 0.000 in 9.00 W/m2
07:29 73.0 °F 69.0 °F 29.7 in South 11 mph 12 mph 86% 0.000 in 14.00 W/m2
07:34 73.0 °F 69.0 °F 29.7 in South 12 mph 12 mph 86% 0.000 in 16.00 W/m2
07:39 73.0 °F 68.0 °F 29.7 in South 8 mph 12 mph 85% 0.000 in 16.00 W/m2
07:44 73.0 °F 69.0 °F 29.7 in South 10 mph 11 mph 85% 0.000 in 19.00 W/m2
07:49 73.0 °F 69.0 °F 29.7 in South 8 mph 11 mph 85% 0.000 in 30.00 W/m2
07:54 74.0 °F 69.0 °F 29.7 in South 9 mph 12 mph 85% 0.000 in 35.00 W/m2
07:59 74.0 °F 69.0 °F 29.7 in SSW 9 mph 10 mph 85% 0.000 in 39.00 W/m2
08:04 74.0 °F 69.0 °F 29.8 in West 10 mph 10 mph 85% 0.000 in 33.00 W/m2
08:09 74.0 °F 69.0 °F 29.8 in WSW 7 mph 9 mph 85% 0.000 in 30.00 W/m2
08:14 74.0 °F 69.0 °F 29.8 in West 6 mph 7 mph 85% 0.000 in 30.00 W/m2
08:19 74.0 °F 69.0 °F 29.8 in West 8 mph 8 mph 85% 0.000 in 39.00 W/m2
08:24 74.0 °F 69.0 °F 29.8 in SW 7 mph 8 mph 85% 0.000 in 32.00 W/m2
08:29 74.0 °F 69.0 °F 29.8 in WSW 7 mph 8 mph 85% 0.000 in 23.00 W/m2
08:34 74.0 °F 69.0 °F 29.8 in West 5 mph 7 mph 85% 0.000 in 23.00 W/m2
08:39 74.0 °F 69.0 °F 29.8 in West 9 mph 10 mph 85% 0.000 in 32.00 W/m2
08:44 74.0 °F 69.0 °F 29.8 in SW 9 mph 10 mph 84% 0.000 in 79.00 W/m2
08:49 74.0 °F 69.0 °F 29.8 in WSW 8 mph 9 mph 84% 0.000 in 35.00 W/m2
08:54 74.0 °F 69.0 °F 29.8 in WSW 8 mph 8 mph 84% 0.000 in 35.00 W/m2
08:59 74.0 °F 69.0 °F 29.8 in WSW 7 mph 8 mph 84% 0.000 in 44.00 W/m2
09:04 74.0 °F 69.0 °F 29.8 in SW 6 mph 7 mph 84% 0.000 in 26.00 W/m2
09:09 74.0 °F 69.0 °F 29.8 in South 7 mph 10 mph 84% 0.000 in 162.00 W/m2
09:14 74.0 °F 69.0 °F 29.7 in SSW 7 mph 10 mph 85% 0.000 in 348.00 W/m2
09:19 75.0 °F 70.0 °F 29.7 in SSW 12 mph 13 mph 85% 0.000 in 367.00 W/m2
09:24 75.0 °F 70.0 °F 29.7 in SW 10 mph 10 mph 85% 0.000 in 385.00 W/m2
09:29 75.0 °F 70.0 °F 29.7 in SW 5 mph 8 mph 84% 0.000 in 397.00 W/m2
09:34 76.0 °F 70.0 °F 29.7 in SW 7 mph 7 mph 84% 0.000 in 401.00 W/m2
09:39 76.0 °F 71.0 °F 29.7 in WSW 9 mph 10 mph 83% 0.000 in 466.00 W/m2
09:44 77.0 °F 71.0 °F 29.7 in SW 9 mph 9 mph 83% 0.000 in 446.00 W/m2
09:49 77.0 °F 71.0 °F 29.8 in WSW 11 mph 11 mph 82% 0.000 in 367.00 W/m2
09:54 77.0 °F 70.0 °F 29.8 in SW 9 mph 11 mph 80% 0.000 in 272.00 W/m2
09:59 77.0 °F 70.0 °F 29.8 in West 10 mph 10 mph 79% 0.000 in 193.00 W/m2
10:04 77.0 °F 70.0 °F 29.8 in WSW 11 mph 13 mph 79% 0.000 in 148.00 W/m2
10:09 77.0 °F 69.0 °F 29.8 in WSW 11 mph 11 mph 78% 0.000 in 144.00 W/m2
10:14 77.0 °F 69.0 °F 29.8 in West 11 mph 12 mph 78% 0.000 in 195.00 W/m2
10:19 77.0 °F 69.0 °F 29.8 in WSW 10 mph 10 mph 78% 0.000 in 250.00 W/m2
10:24 77.0 °F 69.0 °F 29.8 in West 9 mph 12 mph 77% 0.000 in 188.00 W/m2
10:29 77.0 °F 69.0 °F 29.8 in West 11 mph 13 mph 76% 0.000 in 250.00 W/m2
10:34 77.0 °F 68.0 °F 29.8 in West 10 mph 11 mph 75% 0.000 in 290.00 W/m2
10:39 77.0 °F 68.0 °F 29.8 in West 11 mph 11 mph 75% 0.000 in 640.00 W/m2
10:44 78.0 °F 69.0 °F 29.8 in NW 10 mph 11 mph 74% 0.000 in 640.00 W/m2
10:49 78.0 °F 68.0 °F 29.8 in WNW 11 mph 11 mph 73% 0.000 in 260.00 W/m2
10:54 78.0 °F 68.0 °F 29.8 in NW 18 mph 18 mph 71% 0.000 in 450.00 W/m2
10:59 77.0 °F 66.0 °F 29.8 in NW 14 mph 16 mph 68% 0.000 in 545.00 W/m2
11:04 76.0 °F 64.0 °F 29.8 in NW 17 mph 18 mph 66% 0.000 in 668.00 W/m2
11:09 76.0 °F 63.0 °F 29.8 in NW 16 mph 17 mph 65% 0.000 in 756.00 W/m2
11:14 76.0 °F 63.0 °F 29.8 in WNW 19 mph 19 mph 64% 0.000 in 603.00 W/m2
11:19 75.0 °F 62.0 °F 29.8 in NW 17 mph 21 mph 62% 0.000 in 668.00 W/m2
11:24 75.0 °F 61.0 °F 29.8 in WNW 12 mph 15 mph 61% 0.000 in 668.00 W/m2
11:29 75.0 °F 61.0 °F 29.8 in WNW 14 mph 16 mph 61% 0.000 in 615.00 W/m2
11:34 75.0 °F 61.0 °F 29.8 in WNW 13 mph 15 mph 61% 0.000 in 647.00 W/m2
11:39 75.0 °F 60.0 °F 29.8 in NW 12 mph 15 mph 60% 0.000 in 605.00 W/m2
11:44 76.0 °F 60.0 °F 29.8 in WNW 11 mph 12 mph 59% 0.000 in 810.00 W/m2
11:49 76.0 °F 60.0 °F 29.8 in NW 11 mph 12 mph 59% 0.000 in 798.00 W/m2
11:54 77.0 °F 61.0 °F 29.8 in NW 12 mph 15 mph 59% 0.000 in 803.00 W/m2
11:59 77.0 °F 60.0 °F 29.8 in NW 16 mph 17 mph 57% 0.000 in 821.00 W/m2
12:04 77.0 °F 60.0 °F 29.8 in NW 14 mph 17 mph 57% 0.000 in 828.00 W/m2
12:09 77.0 °F 60.0 °F 29.8 in NW 12 mph 14 mph 57% 0.000 in 835.00 W/m2
12:14 77.0 °F 60.0 °F 29.8 in WNW 14 mph 15 mph 57% 0.000 in 840.00 W/m2
12:19 77.0 °F 60.0 °F 29.8 in NW 11 mph 15 mph 57% 0.000 in 849.00 W/m2
12:24 77.0 °F 60.0 °F 29.8 in NNW 16 mph 17 mph 56% 0.000 in 856.00 W/m2
12:29 77.0 °F 59.0 °F 29.8 in NNW 16 mph 17 mph 55% 0.000 in 860.00 W/m2
12:34 77.0 °F 59.0 °F 29.8 in NNW 15 mph 16 mph 55% 0.000 in 867.00 W/m2
12:39 77.0 °F 59.0 °F 29.8 in NNW 16 mph 17 mph 55% 0.000 in 874.00 W/m2
12:44 77.0 °F 59.0 °F 29.8 in NW 14 mph 18 mph 54% 0.000 in 875.00 W/m2
12:49 77.0 °F 59.0 °F 29.8 in NNW 17 mph 18 mph 54% 0.000 in 882.00 W/m2
12:54 77.0 °F 59.0 °F 29.8 in NW 17 mph 17 mph 53% 0.000 in 888.00 W/m2
12:59 77.0 °F 59.0 °F 29.8 in NW 12 mph 14 mph 54% 0.000 in 889.00 W/m2
13:04 77.0 °F 59.0 °F 29.8 in NW 15 mph 15 mph 55% 0.000 in 893.00 W/m2
13:09 77.0 °F 59.0 °F 29.8 in NW 24 mph 24 mph 54% 0.000 in 895.00 W/m2
13:14 77.0 °F 59.0 °F 29.8 in NW 14 mph 24 mph 54% 0.000 in 896.00 W/m2
13:19 77.0 °F 59.0 °F 29.8 in NW 13 mph 13 mph 54% 0.000 in 898.00 W/m2
13:24 78.0 °F 59.0 °F 29.8 in NW 20 mph 21 mph 53% 0.000 in 898.00 W/m2
13:29 77.0 °F 59.0 °F 29.8 in WNW 13 mph 16 mph 53% 0.000 in 900.00 W/m2
13:34 78.0 °F 60.0 °F 29.8 in NW 17 mph 17 mph 54% 0.000 in 900.00 W/m2
13:39 78.0 °F 60.0 °F 29.8 in NW 13 mph 13 mph 53% 0.000 in 900.00 W/m2
13:44 79.0 °F 61.0 °F 29.8 in NNW 18 mph 21 mph 53% 0.000 in 898.00 W/m2
13:49 79.0 °F 60.0 °F 29.8 in NNW 18 mph 21 mph 52% 0.000 in 896.00 W/m2
13:54 79.0 °F 60.0 °F 29.8 in NNW 19 mph 20 mph 52% 0.000 in 898.00 W/m2
13:59 78.0 °F 59.0 °F 29.8 in NW 18 mph 18 mph 52% 0.000 in 895.00 W/m2
14:04 78.0 °F 59.0 °F 29.8 in NW 16 mph 18 mph 51% 0.000 in 891.00 W/m2
14:09 79.0 °F 60.0 °F 29.8 in NW 16 mph 16 mph 52% 0.000 in 889.00 W/m2
14:14 79.0 °F 60.0 °F 29.8 in NW 13 mph 13 mph 52% 0.000 in 886.00 W/m2
14:19 79.0 °F 60.0 °F 29.8 in NW 15 mph 19 mph 52% 0.000 in 881.00 W/m2
14:24 79.0 °F 60.0 °F 29.8 in NNW 21 mph 21 mph 51% 0.000 in 875.00 W/m2
14:29 79.0 °F 60.0 °F 29.8 in North 19 mph 19 mph 51% 0.000 in 868.00 W/m2
14:34 79.0 °F 60.0 °F 29.8 in NNW 16 mph 19 mph 51% 0.000 in 863.00 W/m2
14:39 80.0 °F 60.0 °F 29.8 in NNW 17 mph 17 mph 51% 0.000 in 860.00 W/m2
14:44 80.0 °F 59.0 °F 29.8 in NNW 16 mph 18 mph 50% 0.000 in 851.00 W/m2
14:49 80.0 °F 60.0 °F 29.8 in NW 17 mph 18 mph 50% 0.000 in 844.00 W/m2
14:54 80.0 °F 60.0 °F 29.8 in NNW 16 mph 19 mph 50% 0.000 in 837.00 W/m2
14:59 80.0 °F 60.0 °F 29.8 in NW 20 mph 20 mph 50% 0.000 in 830.00 W/m2
15:04 80.0 °F 59.0 °F 29.8 in NW 20 mph 21 mph 49% 0.000 in 821.00 W/m2
15:09 79.0 °F 59.0 °F 29.8 in NNW 18 mph 21 mph 50% 0.000 in 812.00 W/m2
15:14 79.0 °F 59.0 °F 29.8 in North 17 mph 21 mph 50% 0.000 in 807.00 W/m2
15:19 80.0 °F 60.0 °F 29.8 in North 16 mph 18 mph 50% 0.000 in 795.00 W/m2
15:24 80.0 °F 60.0 °F 29.8 in NW 21 mph 28 mph 50% 0.000 in 784.00 W/m2
15:29 80.0 °F 59.0 °F 29.8 in NNW 20 mph 21 mph 49% 0.000 in 773.00 W/m2
15:34 80.0 °F 59.0 °F 29.8 in NNW 20 mph 20 mph 49% 0.000 in 763.00 W/m2
15:39 80.0 °F 59.0 °F 29.8 in NW 19 mph 20 mph 48% 0.000 in 752.00 W/m2
15:44 80.0 °F 59.0 °F 29.8 in NNW 20 mph 20 mph 49% 0.000 in 738.00 W/m2
15:49 81.0 °F 60.0 °F 29.8 in North 17 mph 20 mph 49% 0.000 in 726.00 W/m2
15:54 81.0 °F 60.0 °F 29.8 in NNW 16 mph 17 mph 49% 0.000 in 717.00 W/m2
15:59 81.0 °F 59.0 °F 29.8 in North 19 mph 19 mph 48% 0.000 in 703.00 W/m2
16:04 81.0 °F 59.0 °F 29.8 in North 23 mph 23 mph 48% 0.000 in 691.00 W/m2
16:09 80.0 °F 58.0 °F 29.8 in NNW 18 mph 23 mph 47% 0.000 in 680.00 W/m2
16:14 80.0 °F 58.0 °F 29.8 in North 20 mph 20 mph 47% 0.000 in 666.00 W/m2
16:19 80.0 °F 58.0 °F 29.8 in NNW 18 mph 20 mph 47% 0.000 in 650.00 W/m2
16:24 80.0 °F 58.0 °F 29.8 in North 23 mph 23 mph 46% 0.000 in 636.00 W/m2
16:29 81.0 °F 58.0 °F 29.8 in NNW 20 mph 20 mph 46% 0.000 in 622.00 W/m2
16:34 80.0 °F 57.0 °F 29.8 in North 15 mph 19 mph 45% 0.000 in 608.00 W/m2
16:39 80.0 °F 57.0 °F 29.8 in NNW 18 mph 20 mph 45% 0.000 in 592.00 W/m2
16:44 80.0 °F 57.0 °F 29.8 in NNW 20 mph 23 mph 45% 0.000 in 577.00 W/m2
16:49 80.0 °F 57.0 °F 29.8 in NNW 17 mph 18 mph 46% 0.000 in 561.00 W/m2
16:54 80.0 °F 57.0 °F 29.8 in NNW 19 mph 20 mph 45% 0.000 in 541.00 W/m2
16:59 80.0 °F 57.0 °F 29.8 in NNW 20 mph 22 mph 45% 0.000 in 529.00 W/m2
17:04 80.0 °F 57.0 °F 29.8 in NNW 17 mph 22 mph 45% 0.000 in 510.00 W/m2
17:09 80.0 °F 56.0 °F 29.8 in NNW 19 mph 19 mph 44% 0.000 in 492.00 W/m2
17:14 80.0 °F 56.0 °F 29.8 in NNW 27 mph 27 mph 44% 0.000 in 475.00 W/m2
17:19 80.0 °F 56.0 °F 29.8 in North 23 mph 23 mph 44% 0.000 in 457.00 W/m2
17:24 79.0 °F 56.0 °F 29.8 in NNW 22 mph 23 mph 44% 0.000 in 441.00 W/m2
17:29 79.0 °F 55.0 °F 29.8 in NNW 17 mph 20 mph 43% 0.000 in 425.00 W/m2
17:34 79.0 °F 55.0 °F 29.9 in NNW 19 mph 21 mph 43% 0.000 in 411.00 W/m2
17:39 79.0 °F 54.0 °F 29.8 in NNW 17 mph 22 mph 43% 0.000 in 390.00 W/m2
17:44 78.0 °F 54.0 °F 29.8 in NNW 20 mph 22 mph 43% 0.000 in 373.00 W/m2
17:49 78.0 °F 54.0 °F 29.9 in NNW 20 mph 21 mph 43% 0.000 in 353.00 W/m2
17:54 78.0 °F 53.0 °F 29.9 in NNW 19 mph 20 mph 42% 0.000 in 338.00 W/m2
17:59 78.0 °F 53.0 °F 29.9 in NNW 20 mph 20 mph 42% 0.000 in 320.00 W/m2
18:04 78.0 °F 53.0 °F 29.9 in NNW 15 mph 17 mph 42% 0.000 in 302.00 W/m2
18:09 78.0 °F 53.0 °F 29.9 in NNW 16 mph 16 mph 41% 0.000 in 283.00 W/m2
18:14 78.0 °F 52.0 °F 29.9 in NW 18 mph 19 mph 40% 0.000 in 265.00 W/m2
18:19 78.0 °F 51.0 °F 29.9 in NNW 17 mph 19 mph 40% 0.000 in 248.00 W/m2
18:24 78.0 °F 51.0 °F 29.9 in NNW 18 mph 22 mph 39% 0.000 in 229.00 W/m2
18:29 77.0 °F 51.0 °F 29.9 in NNW 19 mph 22 mph 39% 0.000 in 213.00 W/m2
18:34 77.0 °F 50.0 °F 29.9 in NNW 16 mph 20 mph 39% 0.000 in 190.00 W/m2
18:39 77.0 °F 50.0 °F 29.9 in NNW 19 mph 19 mph 39% 0.000 in 171.00 W/m2
18:44 77.0 °F 49.0 °F 29.9 in NNW 15 mph 19 mph 38% 0.000 in 151.00 W/m2
18:49 76.0 °F 49.0 °F 29.9 in NNW 17 mph 17 mph 38% 0.000 in 77.00 W/m2
18:54 76.0 °F 49.0 °F 29.9 in NNW 15 mph 18 mph 38% 0.000 in 42.00 W/m2
18:59 76.0 °F 48.0 °F 29.9 in NNW 18 mph 20 mph 38% 0.000 in 39.00 W/m2
19:04 76.0 °F 48.0 °F 29.9 in NW 15 mph 15 mph 37% 0.000 in 35.00 W/m2
19:09 75.0 °F 46.0 °F 29.9 in NNW 18 mph 18 mph 36% 0.000 in 32.00 W/m2
19:14 75.0 °F 46.0 °F 29.9 in NNW 18 mph 19 mph 36% 0.000 in 26.00 W/m2
19:19 75.0 °F 46.0 °F 29.9 in NNW 16 mph 18 mph 36% 0.000 in 23.00 W/m2
19:24 75.0 °F 46.0 °F 29.9 in NNW 15 mph 15 mph 36% 0.000 in 19.00 W/m2
19:29 74.0 °F 46.0 °F 29.9 in NNW 16 mph 16 mph 36% 0.000 in 16.00 W/m2
19:34 74.0 °F 46.0 °F 29.9 in NNW 16 mph 17 mph 37% 0.000 in 12.00 W/m2
19:39 74.0 °F 47.0 °F 29.9 in NNW 12 mph 17 mph 38% 0.000 in 9.00 W/m2
19:44 74.0 °F 47.0 °F 29.9 in NNW 19 mph 19 mph 38% 0.000 in 5.00 W/m2
19:49 73.0 °F 45.0 °F 29.9 in NNW 16 mph 17 mph 37% 0.000 in 0.00 W/m2
19:54 73.0 °F 46.0 °F 29.9 in North 19 mph 19 mph 38% 0.000 in 0.00 W/m2
19:59 73.0 °F 46.0 °F 29.9 in NNW 12 mph 13 mph 38% 0.000 in 0.00 W/m2
20:04 72.0 °F 45.0 °F 29.9 in NNW 11 mph 13 mph 38% 0.000 in 0.00 W/m2
20:09 72.0 °F 46.0 °F 29.9 in NNW 12 mph 13 mph 39% 0.000 in 0.00 W/m2
20:14 72.0 °F 45.0 °F 29.9 in NNW 15 mph 17 mph 38% 0.000 in 0.00 W/m2
20:19 72.0 °F 45.0 °F 29.9 in NNW 14 mph 14 mph 38% 0.000 in 0.00 W/m2
20:24 72.0 °F 44.0 °F 29.9 in NNW 16 mph 17 mph 37% 0.000 in 0.00 W/m2
20:29 71.0 °F 44.0 °F 30.0 in NNW 14 mph 15 mph 37% 0.000 in 0.00 W/m2
20:34 71.0 °F 44.0 °F 30.0 in NNW 17 mph 17 mph 37% 0.000 in 0.00 W/m2
20:39 71.0 °F 44.0 °F 30.0 in NNW 13 mph 14 mph 38% 0.000 in 0.00 W/m2
20:44 71.0 °F 44.0 °F 30.0 in NNW 11 mph 14 mph 38% 0.000 in 0.00 W/m2
20:49 71.0 °F 45.0 °F 30.0 in NNW 10 mph 11 mph 39% 0.000 in 0.00 W/m2
20:54 71.0 °F 45.0 °F 30.0 in NNW 10 mph 13 mph 39% 0.000 in 0.00 W/m2
20:59 71.0 °F 44.0 °F 30.0 in NNW 11 mph 11 mph 39% 0.000 in 0.00 W/m2
21:04 70.0 °F 44.0 °F 30.0 in NNW 7 mph 8 mph 39% 0.000 in 0.00 W/m2
21:09 70.0 °F 45.0 °F 30.0 in NW 11 mph 11 mph 40% 0.000 in 0.00 W/m2
21:14 70.0 °F 45.0 °F 30.0 in NNW 11 mph 14 mph 40% 0.000 in 0.00 W/m2
21:19 70.0 °F 44.0 °F 30.0 in NNW 8 mph 9 mph 40% 0.000 in 0.00 W/m2
21:24 70.0 °F 44.0 °F 30.0 in NNW 11 mph 11 mph 40% 0.000 in 0.00 W/m2
21:29 69.0 °F 44.0 °F 30.0 in NNW 17 mph 17 mph 40% 0.000 in 0.00 W/m2
21:34 69.0 °F 44.0 °F 30.0 in NNW 12 mph 16 mph 40% 0.000 in 0.00 W/m2
21:39 69.0 °F 44.0 °F 30.0 in NNW 12 mph 12 mph 40% 0.000 in 0.00 W/m2
21:44 69.0 °F 44.0 °F 30.0 in NNW 14 mph 14 mph 40% 0.000 in 0.00 W/m2
21:49 69.0 °F 44.0 °F 30.0 in NNW 16 mph 16 mph 40% 0.000 in 0.00 W/m2
21:54 69.0 °F 43.0 °F 30.0 in NNW 13 mph 16 mph 40% 0.000 in 0.00 W/m2
21:59 69.0 °F 43.0 °F 30.0 in NNW 13 mph 13 mph 40% 0.000 in 0.00 W/m2
22:04 69.0 °F 43.0 °F 30.0 in NNW 16 mph 18 mph 40% 0.000 in 0.00 W/m2
22:09 68.0 °F 44.0 °F 30.0 in NNW 11 mph 18 mph 41% 0.000 in 0.00 W/m2
22:14 68.0 °F 44.0 °F 30.0 in NNW 11 mph 11 mph 41% 0.000 in 0.00 W/m2
22:19 68.0 °F 44.0 °F 30.0 in NNW 13 mph 13 mph 41% 0.000 in 0.00 W/m2
22:24 68.0 °F 43.0 °F 30.0 in NNW 10 mph 13 mph 41% 0.000 in 0.00 W/m2
22:29 68.0 °F 43.0 °F 30.1 in NNW 13 mph 13 mph 41% 0.000 in 0.00 W/m2
22:34 68.0 °F 43.0 °F 30.1 in NNW 11 mph 13 mph 41% 0.000 in 0.00 W/m2
22:39 68.0 °F 43.0 °F 30.1 in North 8 mph 13 mph 41% 0.000 in 0.00 W/m2
22:44 68.0 °F 43.0 °F 30.1 in NNW 14 mph 14 mph 41% 0.000 in 0.00 W/m2
22:49 67.0 °F 43.0 °F 30.1 in NNW 11 mph 11 mph 41% 0.000 in 0.00 W/m2
22:59 67.0 °F 43.0 °F 30.1 in North 10 mph 11 mph 41% 0.000 in 0.00 W/m2
23:04 67.0 °F 42.0 °F 30.1 in NNW 8 mph 9 mph 41% 0.000 in 0.00 W/m2
23:09 67.0 °F 42.0 °F 30.1 in North 6 mph 9 mph 41% 0.000 in 0.00 W/m2
23:14 67.0 °F 42.0 °F 30.1 in North 5 mph 6 mph 41% 0.000 in 0.00 W/m2
23:19 66.0 °F 42.0 °F 30.1 in North 6 mph 7 mph 41% 0.000 in 0.00 W/m2
23:24 66.0 °F 42.0 °F 30.1 in NNW 4 mph 6 mph 42% 0.000 in 0.00 W/m2
23:29 66.0 °F 42.0 °F 30.1 in NNW 5 mph 5 mph 42% 0.000 in 0.00 W/m2
23:34 66.0 °F 42.0 °F 30.1 in NNW 5 mph 8 mph 42% 0.000 in 0.00 W/m2
23:39 66.0 °F 42.0 °F 30.1 in NNW 5 mph 6 mph 42% 0.000 in 0.00 W/m2
23:44 66.0 °F 42.0 °F 30.1 in NW 5 mph 5 mph 43% 0.000 in 0.00 W/m2
23:49 65.0 °F 42.0 °F 30.1 in NNW 6 mph 6 mph 43% 0.000 in 0.00 W/m2
23:54 65.0 °F 42.0 °F 30.1 in NNW 4 mph 5 mph 44% 0.000 in 0.00 W/m2
Villages of Bridgestone, Spring, TX USA
Compliments of Weather Underground - 4 mb